sensor_id;sensor_type;location;lat;lon;timestamp;temperature;humidity
10566;DHT22;5331;48.148;16.326;2023-04-15T00:00:10;4.10;1.00
10566;DHT22;5331;48.148;16.326;2023-04-15T00:02:37;4.10;1.00
10566;DHT22;5331;48.148;16.326;2023-04-15T00:05:05;4.10;1.00
10566;DHT22;5331;48.148;16.326;2023-04-15T00:07:32;4.10;1.00
10566;DHT22;5331;48.148;16.326;2023-04-15T00:09:59;4.10;1.00
10566;DHT22;5331;48.148;16.326;2023-04-15T00:12:27;4.10;1.00
10566;DHT22;5331;48.148;16.326;2023-04-15T00:14:55;4.10;1.00
10566;DHT22;5331;48.148;16.326;2023-04-15T00:17:23;4.20;1.00
10566;DHT22;5331;48.148;16.326;2023-04-15T00:19:50;4.10;1.00
10566;DHT22;5331;48.148;16.326;2023-04-15T00:22:17;4.10;1.00
10566;DHT22;5331;48.148;16.326;2023-04-15T00:24:44;4.10;1.00
10566;DHT22;5331;48.148;16.326;2023-04-15T00:27:11;4.20;1.00
10566;DHT22;5331;48.148;16.326;2023-04-15T00:29:38;4.20;1.00
10566;DHT22;5331;48.148;16.326;2023-04-15T00:32:06;4.10;1.00
10566;DHT22;5331;48.148;16.326;2023-04-15T00:34:33;4.10;1.00
10566;DHT22;5331;48.148;16.326;2023-04-15T00:37:00;4.10;1.00
10566;DHT22;5331;48.148;16.326;2023-04-15T00:39:27;4.10;1.00
10566;DHT22;5331;48.148;16.326;2023-04-15T00:41:54;4.10;1.00
10566;DHT22;5331;48.148;16.326;2023-04-15T00:44:22;4.10;1.00
10566;DHT22;5331;48.148;16.326;2023-04-15T00:46:50;4.00;1.00
10566;DHT22;5331;48.148;16.326;2023-04-15T00:49:19;4.10;1.00
10566;DHT22;5331;48.148;16.326;2023-04-15T00:51:46;4.10;1.00
10566;DHT22;5331;48.148;16.326;2023-04-15T00:54:13;4.10;1.00
10566;DHT22;5331;48.148;16.326;2023-04-15T00:56:41;4.10;1.00
10566;DHT22;5331;48.148;16.326;2023-04-15T00:59:08;4.00;1.00
10566;DHT22;5331;48.148;16.326;2023-04-15T01:01:36;4.10;1.00
10566;DHT22;5331;48.148;16.326;2023-04-15T01:04:03;4.10;1.00
10566;DHT22;5331;48.148;16.326;2023-04-15T01:06:32;4.00;1.00
10566;DHT22;5331;48.148;16.326;2023-04-15T01:08:59;4.00;1.00
10566;DHT22;5331;48.148;16.326;2023-04-15T01:11:27;4.00;1.00
10566;DHT22;5331;48.148;16.326;2023-04-15T01:13:55;4.10;1.00
10566;DHT22;5331;48.148;16.326;2023-04-15T01:16:22;4.00;1.00
10566;DHT22;5331;48.148;16.326;2023-04-15T01:18:49;4.00;1.00
10566;DHT22;5331;48.148;16.326;2023-04-15T01:21:17;4.00;1.00
10566;DHT22;5331;48.148;16.326;2023-04-15T01:23:46;4.00;1.00
10566;DHT22;5331;48.148;16.326;2023-04-15T01:26:15;4.10;1.00
10566;DHT22;5331;48.148;16.326;2023-04-15T01:28:42;4.10;1.00
10566;DHT22;5331;48.148;16.326;2023-04-15T01:31:10;4.10;1.00
10566;DHT22;5331;48.148;16.326;2023-04-15T01:33:38;4.00;1.00
10566;DHT22;5331;48.148;16.326;2023-04-15T01:36:06;4.00;1.00
10566;DHT22;5331;48.148;16.326;2023-04-15T01:38:34;4.10;1.00
10566;DHT22;5331;48.148;16.326;2023-04-15T01:41:02;4.10;1.00
10566;DHT22;5331;48.148;16.326;2023-04-15T01:43:30;4.10;1.00
10566;DHT22;5331;48.148;16.326;2023-04-15T01:45:57;4.10;1.00
10566;DHT22;5331;48.148;16.326;2023-04-15T01:48:24;4.10;1.00
10566;DHT22;5331;48.148;16.326;2023-04-15T01:50:53;4.20;1.00
10566;DHT22;5331;48.148;16.326;2023-04-15T01:53:22;4.20;1.00
10566;DHT22;5331;48.148;16.326;2023-04-15T01:55:49;4.20;1.00
10566;DHT22;5331;48.148;16.326;2023-04-15T01:58:16;4.20;1.00
10566;DHT22;5331;48.148;16.326;2023-04-15T02:00:44;4.20;1.00
10566;DHT22;5331;48.148;16.326;2023-04-15T02:03:11;4.20;1.00
10566;DHT22;5331;48.148;16.326;2023-04-15T02:05:38;4.20;1.00
10566;DHT22;5331;48.148;16.326;2023-04-15T02:08:05;4.20;1.00
10566;DHT22;5331;48.148;16.326;2023-04-15T02:10:32;4.30;1.00
10566;DHT22;5331;48.148;16.326;2023-04-15T02:12:59;4.30;1.00
10566;DHT22;5331;48.148;16.326;2023-04-15T02:15:27;4.40;1.00
10566;DHT22;5331;48.148;16.326;2023-04-15T02:17:55;4.50;1.00
10566;DHT22;5331;48.148;16.326;2023-04-15T02:20:23;4.40;1.00
10566;DHT22;5331;48.148;16.326;2023-04-15T02:22:51;4.40;1.00
10566;DHT22;5331;48.148;16.326;2023-04-15T02:25:18;4.40;1.00
10566;DHT22;5331;48.148;16.326;2023-04-15T02:27:45;4.40;1.00
10566;DHT22;5331;48.148;16.326;2023-04-15T02:30:12;4.40;1.00
10566;DHT22;5331;48.148;16.326;2023-04-15T02:32:39;4.40;1.00
10566;DHT22;5331;48.148;16.326;2023-04-15T02:35:10;4.40;1.00
10566;DHT22;5331;48.148;16.326;2023-04-15T02:37:37;4.50;1.00
10566;DHT22;5331;48.148;16.326;2023-04-15T02:40:08;4.50;1.00
10566;DHT22;5331;48.148;16.326;2023-04-15T02:42:37;4.50;1.00
10566;DHT22;5331;48.148;16.326;2023-04-15T02:45:05;4.40;1.00
10566;DHT22;5331;48.148;16.326;2023-04-15T02:47:32;4.50;1.00
10566;DHT22;5331;48.148;16.326;2023-04-15T02:50:01;4.50;1.00
10566;DHT22;5331;48.148;16.326;2023-04-15T02:52:29;4.40;1.00
10566;DHT22;5331;48.148;16.326;2023-04-15T02:54:56;4.50;1.00
10566;DHT22;5331;48.148;16.326;2023-04-15T02:57:25;4.50;1.00
10566;DHT22;5331;48.148;16.326;2023-04-15T02:59:53;4.50;1.00
10566;DHT22;5331;48.148;16.326;2023-04-15T03:02:20;4.50;1.00
10566;DHT22;5331;48.148;16.326;2023-04-15T03:04:47;4.50;1.00
10566;DHT22;5331;48.148;16.326;2023-04-15T03:07:16;4.50;1.00
10566;DHT22;5331;48.148;16.326;2023-04-15T03:09:44;4.60;1.00
10566;DHT22;5331;48.148;16.326;2023-04-15T03:12:12;4.60;1.00
10566;DHT22;5331;48.148;16.326;2023-04-15T03:14:39;4.60;1.00
10566;DHT22;5331;48.148;16.326;2023-04-15T03:17:06;4.60;1.00
10566;DHT22;5331;48.148;16.326;2023-04-15T03:19:33;4.50;1.00
10566;DHT22;5331;48.148;16.326;2023-04-15T03:22:00;4.60;1.00
10566;DHT22;5331;48.148;16.326;2023-04-15T03:24:27;4.60;1.00
10566;DHT22;5331;48.148;16.326;2023-04-15T03:26:56;4.50;1.00
10566;DHT22;5331;48.148;16.326;2023-04-15T03:29:23;4.50;1.00
10566;DHT22;5331;48.148;16.326;2023-04-15T03:31:51;4.50;1.00
10566;DHT22;5331;48.148;16.326;2023-04-15T03:34:18;4.60;1.00
10566;DHT22;5331;48.148;16.326;2023-04-15T03:36:45;4.50;1.00
10566;DHT22;5331;48.148;16.326;2023-04-15T03:39:12;4.60;1.00
10566;DHT22;5331;48.148;16.326;2023-04-15T03:41:39;4.60;1.00
10566;DHT22;5331;48.148;16.326;2023-04-15T03:44:07;4.60;1.00
10566;DHT22;5331;48.148;16.326;2023-04-15T03:46:34;4.50;1.00
10566;DHT22;5331;48.148;16.326;2023-04-15T03:49:01;4.60;1.00
10566;DHT22;5331;48.148;16.326;2023-04-15T03:51:28;4.60;1.00
10566;DHT22;5331;48.148;16.326;2023-04-15T03:53:55;4.60;1.00
10566;DHT22;5331;48.148;16.326;2023-04-15T03:56:23;4.60;1.00
10566;DHT22;5331;48.148;16.326;2023-04-15T03:58:50;4.60;1.00
10566;DHT22;5331;48.148;16.326;2023-04-15T04:01:18;4.50;1.00
10566;DHT22;5331;48.148;16.326;2023-04-15T04:03:45;4.60;1.00
10566;DHT22;5331;48.148;16.326;2023-04-15T04:06:13;4.60;1.00
10566;DHT22;5331;48.148;16.326;2023-04-15T04:08:40;4.60;1.00
10566;DHT22;5331;48.148;16.326;2023-04-15T04:11:07;4.60;1.00
10566;DHT22;5331;48.148;16.326;2023-04-15T04:13:34;4.60;1.00
10566;DHT22;5331;48.148;16.326;2023-04-15T04:16:01;4.60;1.00
10566;DHT22;5331;48.148;16.326;2023-04-15T04:18:30;4.70;1.00
10566;DHT22;5331;48.148;16.326;2023-04-15T04:20:57;4.70;1.00
10566;DHT22;5331;48.148;16.326;2023-04-15T04:23:24;4.70;1.00
10566;DHT22;5331;48.148;16.326;2023-04-15T04:25:51;4.70;1.00
10566;DHT22;5331;48.148;16.326;2023-04-15T04:28:18;4.70;1.00
10566;DHT22;5331;48.148;16.326;2023-04-15T04:30:45;4.70;1.00
10566;DHT22;5331;48.148;16.326;2023-04-15T04:33:12;4.70;1.00
10566;DHT22;5331;48.148;16.326;2023-04-15T04:35:40;4.70;1.00
10566;DHT22;5331;48.148;16.326;2023-04-15T04:38:07;4.70;1.00
10566;DHT22;5331;48.148;16.326;2023-04-15T04:40:34;4.80;1.00
10566;DHT22;5331;48.148;16.326;2023-04-15T04:43:01;4.80;1.00
10566;DHT22;5331;48.148;16.326;2023-04-15T04:45:28;4.80;1.00
10566;DHT22;5331;48.148;16.326;2023-04-15T04:47:55;4.80;1.00
10566;DHT22;5331;48.148;16.326;2023-04-15T04:50:22;4.80;1.00
10566;DHT22;5331;48.148;16.326;2023-04-15T04:52:51;4.80;1.00
10566;DHT22;5331;48.148;16.326;2023-04-15T04:55:18;4.80;1.00
10566;DHT22;5331;48.148;16.326;2023-04-15T04:57:45;4.80;1.00
10566;DHT22;5331;48.148;16.326;2023-04-15T05:00:12;4.90;1.00
10566;DHT22;5331;48.148;16.326;2023-04-15T05:02:39;4.80;1.00
10566;DHT22;5331;48.148;16.326;2023-04-15T05:05:09;4.90;1.00
10566;DHT22;5331;48.148;16.326;2023-04-15T05:07:45;4.90;1.00
10566;DHT22;5331;48.148;16.326;2023-04-15T05:10:13;4.90;1.00
10566;DHT22;5331;48.148;16.326;2023-04-15T05:12:42;5.00;1.00
10566;DHT22;5331;48.148;16.326;2023-04-15T05:15:09;5.00;1.00
10566;DHT22;5331;48.148;16.326;2023-04-15T05:17:36;5.00;1.00
10566;DHT22;5331;48.148;16.326;2023-04-15T05:20:04;5.10;1.00
10566;DHT22;5331;48.148;16.326;2023-04-15T05:22:31;5.10;1.00
10566;DHT22;5331;48.148;16.326;2023-04-15T05:24:58;5.10;1.00
10566;DHT22;5331;48.148;16.326;2023-04-15T05:27:40;5.20;1.00
10566;DHT22;5331;48.148;16.326;2023-04-15T05:30:07;5.20;1.00
10566;DHT22;5331;48.148;16.326;2023-04-15T05:32:34;5.30;1.00
10566;DHT22;5331;48.148;16.326;2023-04-15T05:35:01;5.30;1.00
10566;DHT22;5331;48.148;16.326;2023-04-15T05:37:28;5.30;1.00
10566;DHT22;5331;48.148;16.326;2023-04-15T05:39:55;5.30;1.00
10566;DHT22;5331;48.148;16.326;2023-04-15T05:42:22;5.40;1.00
10566;DHT22;5331;48.148;16.326;2023-04-15T05:44:50;5.40;1.00
10566;DHT22;5331;48.148;16.326;2023-04-15T05:47:17;5.50;1.00
10566;DHT22;5331;48.148;16.326;2023-04-15T05:49:44;5.50;1.00
10566;DHT22;5331;48.148;16.326;2023-04-15T05:52:11;5.50;1.00
10566;DHT22;5331;48.148;16.326;2023-04-15T05:54:38;5.50;1.00
10566;DHT22;5331;48.148;16.326;2023-04-15T05:57:05;5.50;1.00
10566;DHT22;5331;48.148;16.326;2023-04-15T05:59:32;5.50;1.00
10566;DHT22;5331;48.148;16.326;2023-04-15T06:02:01;5.50;1.00
10566;DHT22;5331;48.148;16.326;2023-04-15T06:04:28;5.60;1.00
10566;DHT22;5331;48.148;16.326;2023-04-15T06:06:55;5.60;1.00
10566;DHT22;5331;48.148;16.326;2023-04-15T06:09:21;5.70;1.00
10566;DHT22;5331;48.148;16.326;2023-04-15T06:11:48;5.70;1.00
10566;DHT22;5331;48.148;16.326;2023-04-15T06:14:15;5.80;1.00
10566;DHT22;5331;48.148;16.326;2023-04-15T06:16:42;5.80;1.00
10566;DHT22;5331;48.148;16.326;2023-04-15T06:19:10;5.90;1.00
10566;DHT22;5331;48.148;16.326;2023-04-15T06:21:39;6.00;1.00
10566;DHT22;5331;48.148;16.326;2023-04-15T06:24:06;6.10;1.00
10566;DHT22;5331;48.148;16.326;2023-04-15T06:26:33;6.10;1.00
10566;DHT22;5331;48.148;16.326;2023-04-15T06:29:00;6.20;1.00
10566;DHT22;5331;48.148;16.326;2023-04-15T06:31:27;6.20;1.00
10566;DHT22;5331;48.148;16.326;2023-04-15T06:33:54;6.20;1.00
10566;DHT22;5331;48.148;16.326;2023-04-15T06:36:24;6.20;1.00
10566;DHT22;5331;48.148;16.326;2023-04-15T06:38:52;6.20;1.00
10566;DHT22;5331;48.148;16.326;2023-04-15T06:41:19;6.20;1.00
10566;DHT22;5331;48.148;16.326;2023-04-15T06:43:46;6.30;1.00
10566;DHT22;5331;48.148;16.326;2023-04-15T06:46:13;6.30;1.00
10566;DHT22;5331;48.148;16.326;2023-04-15T06:48:40;6.30;1.00
10566;DHT22;5331;48.148;16.326;2023-04-15T06:51:08;6.40;1.00
10566;DHT22;5331;48.148;16.326;2023-04-15T06:53:36;6.40;1.00
10566;DHT22;5331;48.148;16.326;2023-04-15T06:56:06;6.50;1.00
10566;DHT22;5331;48.148;16.326;2023-04-15T06:58:33;6.50;1.00
10566;DHT22;5331;48.148;16.326;2023-04-15T07:01:01;6.50;1.00
10566;DHT22;5331;48.148;16.326;2023-04-15T07:03:28;6.50;1.00
10566;DHT22;5331;48.148;16.326;2023-04-15T07:05:55;6.50;1.00
10566;DHT22;5331;48.148;16.326;2023-04-15T07:08:22;6.50;1.00
10566;DHT22;5331;48.148;16.326;2023-04-15T07:10:50;6.50;1.00
10566;DHT22;5331;48.148;16.326;2023-04-15T07:13:18;6.40;1.00
10566;DHT22;5331;48.148;16.326;2023-04-15T07:15:45;6.40;1.00
10566;DHT22;5331;48.148;16.326;2023-04-15T07:18:12;6.40;1.00
10566;DHT22;5331;48.148;16.326;2023-04-15T07:20:39;6.50;1.00
10566;DHT22;5331;48.148;16.326;2023-04-15T07:23:06;6.50;1.00
10566;DHT22;5331;48.148;16.326;2023-04-15T07:25:33;6.50;1.00
10566;DHT22;5331;48.148;16.326;2023-04-15T07:28:01;6.60;1.00
10566;DHT22;5331;48.148;16.326;2023-04-15T07:30:28;6.60;1.00
10566;DHT22;5331;48.148;16.326;2023-04-15T07:32:56;6.60;1.00
10566;DHT22;5331;48.148;16.326;2023-04-15T07:35:23;6.60;1.00
10566;DHT22;5331;48.148;16.326;2023-04-15T07:37:51;6.70;1.00
10566;DHT22;5331;48.148;16.326;2023-04-15T07:40:18;6.70;1.00
10566;DHT22;5331;48.148;16.326;2023-04-15T07:42:45;6.80;1.00
10566;DHT22;5331;48.148;16.326;2023-04-15T07:45:15;6.80;1.00
10566;DHT22;5331;48.148;16.326;2023-04-15T07:47:42;6.80;1.00
10566;DHT22;5331;48.148;16.326;2023-04-15T07:50:09;6.80;1.00
10566;DHT22;5331;48.148;16.326;2023-04-15T07:52:36;6.80;1.00
10566;DHT22;5331;48.148;16.326;2023-04-15T07:55:05;6.80;1.00
10566;DHT22;5331;48.148;16.326;2023-04-15T07:57:33;6.90;1.00
10566;DHT22;5331;48.148;16.326;2023-04-15T08:00:00;7.00;1.00
10566;DHT22;5331;48.148;16.326;2023-04-15T08:02:28;7.10;1.00
10566;DHT22;5331;48.148;16.326;2023-04-15T08:04:56;7.20;1.00
10566;DHT22;5331;48.148;16.326;2023-04-15T08:07:23;7.20;1.00
10566;DHT22;5331;48.148;16.326;2023-04-15T08:09:50;7.20;1.00
10566;DHT22;5331;48.148;16.326;2023-04-15T08:12:17;7.20;1.00
10566;DHT22;5331;48.148;16.326;2023-04-15T08:14:45;7.30;1.00
10566;DHT22;5331;48.148;16.326;2023-04-15T08:17:12;7.30;1.00
10566;DHT22;5331;48.148;16.326;2023-04-15T08:19:40;7.30;1.00
10566;DHT22;5331;48.148;16.326;2023-04-15T08:22:08;7.40;1.00
10566;DHT22;5331;48.148;16.326;2023-04-15T08:24:36;7.40;1.00
10566;DHT22;5331;48.148;16.326;2023-04-15T08:27:03;7.40;1.00
10566;DHT22;5331;48.148;16.326;2023-04-15T08:29:30;7.30;1.00
10566;DHT22;5331;48.148;16.326;2023-04-15T08:31:58;7.40;1.00
10566;DHT22;5331;48.148;16.326;2023-04-15T08:34:25;7.30;1.00
10566;DHT22;5331;48.148;16.326;2023-04-15T08:37:01;7.30;1.00
10566;DHT22;5331;48.148;16.326;2023-04-15T08:39:28;7.20;1.00
10566;DHT22;5331;48.148;16.326;2023-04-15T08:41:59;7.20;1.00
10566;DHT22;5331;48.148;16.326;2023-04-15T08:44:28;7.20;1.00
10566;DHT22;5331;48.148;16.326;2023-04-15T08:46:55;7.30;1.00
10566;DHT22;5331;48.148;16.326;2023-04-15T08:49:24;7.30;1.00
10566;DHT22;5331;48.148;16.326;2023-04-15T08:51:54;7.30;1.00
10566;DHT22;5331;48.148;16.326;2023-04-15T08:54:24;7.30;1.00
10566;DHT22;5331;48.148;16.326;2023-04-15T08:56:52;7.50;1.00
10566;DHT22;5331;48.148;16.326;2023-04-15T08:59:19;7.50;1.00
10566;DHT22;5331;48.148;16.326;2023-04-15T09:01:48;7.60;1.00
10566;DHT22;5331;48.148;16.326;2023-04-15T09:04:16;7.70;1.00
10566;DHT22;5331;48.148;16.326;2023-04-15T09:06:43;7.60;1.00
10566;DHT22;5331;48.148;16.326;2023-04-15T09:09:11;7.70;1.00
10566;DHT22;5331;48.148;16.326;2023-04-15T09:11:41;7.70;1.00
10566;DHT22;5331;48.148;16.326;2023-04-15T09:14:08;7.70;1.00
10566;DHT22;5331;48.148;16.326;2023-04-15T09:16:55;7.70;1.00
10566;DHT22;5331;48.148;16.326;2023-04-15T09:19:23;7.80;1.00
10566;DHT22;5331;48.148;16.326;2023-04-15T09:21:51;7.90;1.00
10566;DHT22;5331;48.148;16.326;2023-04-15T09:24:19;7.90;1.00
10566;DHT22;5331;48.148;16.326;2023-04-15T09:26:51;7.90;1.00
10566;DHT22;5331;48.148;16.326;2023-04-15T09:29:19;7.90;1.00
10566;DHT22;5331;48.148;16.326;2023-04-15T09:31:46;8.00;1.00
10566;DHT22;5331;48.148;16.326;2023-04-15T09:34:13;7.90;1.00
10566;DHT22;5331;48.148;16.326;2023-04-15T09:36:55;7.90;1.00
10566;DHT22;5331;48.148;16.326;2023-04-15T09:39:22;7.90;1.00
10566;DHT22;5331;48.148;16.326;2023-04-15T09:42:05;7.90;1.00
10566;DHT22;5331;48.148;16.326;2023-04-15T09:44:32;7.90;1.00
10566;DHT22;5331;48.148;16.326;2023-04-15T09:46:59;8.00;1.00
10566;DHT22;5331;48.148;16.326;2023-04-15T09:49:26;8.10;1.00
10566;DHT22;5331;48.148;16.326;2023-04-15T09:51:58;8.10;1.00
10566;DHT22;5331;48.148;16.326;2023-04-15T09:54:32;8.00;1.00
10566;DHT22;5331;48.148;16.326;2023-04-15T09:57:06;8.00;1.00
10566;DHT22;5331;48.148;16.326;2023-04-15T09:59:34;7.90;1.00
10566;DHT22;5331;48.148;16.326;2023-04-15T10:02:03;7.90;1.00
10566;DHT22;5331;48.148;16.326;2023-04-15T10:04:33;7.80;1.00
10566;DHT22;5331;48.148;16.326;2023-04-15T10:07:02;7.80;1.00
10566;DHT22;5331;48.148;16.326;2023-04-15T10:09:30;7.80;1.00
10566;DHT22;5331;48.148;16.326;2023-04-15T10:11:59;7.90;1.00
10566;DHT22;5331;48.148;16.326;2023-04-15T10:14:31;7.90;1.00
10566;DHT22;5331;48.148;16.326;2023-04-15T10:17:00;7.90;1.00
10566;DHT22;5331;48.148;16.326;2023-04-15T10:19:30;8.00;1.00
10566;DHT22;5331;48.148;16.326;2023-04-15T10:21:57;8.00;1.00
10566;DHT22;5331;48.148;16.326;2023-04-15T10:24:25;8.00;1.00
10566;DHT22;5331;48.148;16.326;2023-04-15T10:26:53;8.00;1.00
10566;DHT22;5331;48.148;16.326;2023-04-15T10:29:20;8.00;1.00
10566;DHT22;5331;48.148;16.326;2023-04-15T10:31:48;8.00;1.00
10566;DHT22;5331;48.148;16.326;2023-04-15T10:34:16;8.10;1.00
10566;DHT22;5331;48.148;16.326;2023-04-15T10:36:44;8.00;1.00
10566;DHT22;5331;48.148;16.326;2023-04-15T10:39:37;8.00;1.00
10566;DHT22;5331;48.148;16.326;2023-04-15T10:42:05;8.00;1.00
10566;DHT22;5331;48.148;16.326;2023-04-15T10:44:33;8.10;1.00
10566;DHT22;5331;48.148;16.326;2023-04-15T10:47:07;8.10;1.00
10566;DHT22;5331;48.148;16.326;2023-04-15T10:49:42;8.30;1.00
10566;DHT22;5331;48.148;16.326;2023-04-15T10:52:09;8.40;1.00
10566;DHT22;5331;48.148;16.326;2023-04-15T10:54:37;8.40;1.00
10566;DHT22;5331;48.148;16.326;2023-04-15T10:57:08;8.50;1.00
10566;DHT22;5331;48.148;16.326;2023-04-15T11:02:45;8.70;1.00
10566;DHT22;5331;48.148;16.326;2023-04-15T11:05:14;8.80;1.00
10566;DHT22;5331;48.148;16.326;2023-04-15T11:07:52;8.80;1.00
10566;DHT22;5331;48.148;16.326;2023-04-15T11:10:50;8.80;1.00
10566;DHT22;5331;48.148;16.326;2023-04-15T11:13:23;8.70;1.00
10566;DHT22;5331;48.148;16.326;2023-04-15T11:16:03;8.40;1.00
10566;DHT22;5331;48.148;16.326;2023-04-15T11:18:32;8.30;1.00
10566;DHT22;5331;48.148;16.326;2023-04-15T11:21:02;8.30;1.00
10566;DHT22;5331;48.148;16.326;2023-04-15T11:23:34;8.40;1.00
10566;DHT22;5331;48.148;16.326;2023-04-15T11:26:04;8.60;1.00
10566;DHT22;5331;48.148;16.326;2023-04-15T11:28:34;8.70;1.00
10566;DHT22;5331;48.148;16.326;2023-04-15T11:31:09;8.80;1.00
10566;DHT22;5331;48.148;16.326;2023-04-15T11:33:44;9.00;1.00
10566;DHT22;5331;48.148;16.326;2023-04-15T11:36:12;9.10;1.00
10566;DHT22;5331;48.148;16.326;2023-04-15T11:38:42;9.30;1.00
10566;DHT22;5331;48.148;16.326;2023-04-15T11:41:09;9.60;1.00
10566;DHT22;5331;48.148;16.326;2023-04-15T11:43:37;9.60;1.00
10566;DHT22;5331;48.148;16.326;2023-04-15T11:46:04;9.60;1.00
10566;DHT22;5331;48.148;16.326;2023-04-15T11:48:32;9.60;1.00
10566;DHT22;5331;48.148;16.326;2023-04-15T11:51:02;9.50;1.00
10566;DHT22;5331;48.148;16.326;2023-04-15T11:53:36;9.50;1.00
10566;DHT22;5331;48.148;16.326;2023-04-15T11:56:04;9.50;1.00
10566;DHT22;5331;48.148;16.326;2023-04-15T11:58:34;9.50;1.00
10566;DHT22;5331;48.148;16.326;2023-04-15T12:01:01;9.40;1.00
10566;DHT22;5331;48.148;16.326;2023-04-15T12:03:30;9.30;1.00
10566;DHT22;5331;48.148;16.326;2023-04-15T12:06:15;9.30;1.00
10566;DHT22;5331;48.148;16.326;2023-04-15T12:09:00;9.30;1.00
10566;DHT22;5331;48.148;16.326;2023-04-15T12:11:36;9.30;1.00
10566;DHT22;5331;48.148;16.326;2023-04-15T12:14:09;9.40;1.00
10566;DHT22;5331;48.148;16.326;2023-04-15T12:16:39;9.50;1.00
10566;DHT22;5331;48.148;16.326;2023-04-15T12:19:09;9.60;1.00
10566;DHT22;5331;48.148;16.326;2023-04-15T12:21:39;9.60;1.00
10566;DHT22;5331;48.148;16.326;2023-04-15T12:24:08;9.50;1.00
10566;DHT22;5331;48.148;16.326;2023-04-15T12:26:40;9.30;1.00
10566;DHT22;5331;48.148;16.326;2023-04-15T12:29:10;9.00;1.00
10566;DHT22;5331;48.148;16.326;2023-04-15T12:31:46;9.00;1.00
10566;DHT22;5331;48.148;16.326;2023-04-15T12:34:14;8.90;1.00
10566;DHT22;5331;48.148;16.326;2023-04-15T12:36:42;8.90;1.00
10566;DHT22;5331;48.148;16.326;2023-04-15T12:39:09;9.00;1.00
10566;DHT22;5331;48.148;16.326;2023-04-15T12:41:36;9.20;1.00
10566;DHT22;5331;48.148;16.326;2023-04-15T12:44:03;9.40;1.00
10566;DHT22;5331;48.148;16.326;2023-04-15T12:46:31;9.50;1.00
10566;DHT22;5331;48.148;16.326;2023-04-15T12:48:58;9.60;1.00
10566;DHT22;5331;48.148;16.326;2023-04-15T12:51:25;9.60;1.00
10566;DHT22;5331;48.148;16.326;2023-04-15T12:53:54;9.60;1.00
10566;DHT22;5331;48.148;16.326;2023-04-15T12:56:21;9.70;1.00
10566;DHT22;5331;48.148;16.326;2023-04-15T12:58:48;9.80;1.00
10566;DHT22;5331;48.148;16.326;2023-04-15T13:01:16;9.90;1.00
10566;DHT22;5331;48.148;16.326;2023-04-15T13:03:43;10.00;1.00
10566;DHT22;5331;48.148;16.326;2023-04-15T13:06:10;10.10;1.00
10566;DHT22;5331;48.148;16.326;2023-04-15T13:08:37;10.20;1.00
10566;DHT22;5331;48.148;16.326;2023-04-15T13:11:05;10.20;1.00
10566;DHT22;5331;48.148;16.326;2023-04-15T13:13:32;10.30;1.00
10566;DHT22;5331;48.148;16.326;2023-04-15T13:15:59;10.50;1.00
10566;DHT22;5331;48.148;16.326;2023-04-15T13:18:27;10.60;1.00
10566;DHT22;5331;48.148;16.326;2023-04-15T13:20:55;10.80;1.00
10566;DHT22;5331;48.148;16.326;2023-04-15T13:23:22;11.00;1.00
10566;DHT22;5331;48.148;16.326;2023-04-15T13:25:49;11.10;1.00
10566;DHT22;5331;48.148;16.326;2023-04-15T13:28:18;11.40;1.00
10566;DHT22;5331;48.148;16.326;2023-04-15T13:30:45;11.60;1.00
10566;DHT22;5331;48.148;16.326;2023-04-15T13:33:13;11.60;1.00
10566;DHT22;5331;48.148;16.326;2023-04-15T13:35:40;11.70;1.00
10566;DHT22;5331;48.148;16.326;2023-04-15T13:38:07;11.50;1.00
10566;DHT22;5331;48.148;16.326;2023-04-15T13:40:34;11.40;1.00
10566;DHT22;5331;48.148;16.326;2023-04-15T13:43:01;11.30;1.00
10566;DHT22;5331;48.148;16.326;2023-04-15T13:45:30;11.00;1.00
10566;DHT22;5331;48.148;16.326;2023-04-15T13:47:57;11.00;1.00
10566;DHT22;5331;48.148;16.326;2023-04-15T13:50:25;11.00;1.00
10566;DHT22;5331;48.148;16.326;2023-04-15T13:52:52;11.00;1.00
10566;DHT22;5331;48.148;16.326;2023-04-15T13:55:19;11.00;1.00
10566;DHT22;5331;48.148;16.326;2023-04-15T13:57:47;11.10;1.00
10566;DHT22;5331;48.148;16.326;2023-04-15T14:00:15;11.30;1.00
10566;DHT22;5331;48.148;16.326;2023-04-15T14:02:43;11.20;1.00
10566;DHT22;5331;48.148;16.326;2023-04-15T14:05:10;11.10;1.00
10566;DHT22;5331;48.148;16.326;2023-04-15T14:07:37;11.10;1.00
10566;DHT22;5331;48.148;16.326;2023-04-15T14:10:05;11.10;1.00
10566;DHT22;5331;48.148;16.326;2023-04-15T14:12:32;11.00;1.00
10566;DHT22;5331;48.148;16.326;2023-04-15T14:14:59;10.80;1.00
10566;DHT22;5331;48.148;16.326;2023-04-15T14:17:26;10.90;1.00
10566;DHT22;5331;48.148;16.326;2023-04-15T14:19:55;10.90;1.00
10566;DHT22;5331;48.148;16.326;2023-04-15T14:22:22;10.90;1.00
10566;DHT22;5331;48.148;16.326;2023-04-15T14:24:49;10.80;1.00
10566;DHT22;5331;48.148;16.326;2023-04-15T14:27:18;10.80;1.00
10566;DHT22;5331;48.148;16.326;2023-04-15T14:29:45;10.70;1.00
10566;DHT22;5331;48.148;16.326;2023-04-15T14:32:12;10.60;1.00
10566;DHT22;5331;48.148;16.326;2023-04-15T14:34:39;10.60;1.00
10566;DHT22;5331;48.148;16.326;2023-04-15T14:37:08;10.60;1.00
10566;DHT22;5331;48.148;16.326;2023-04-15T14:39:35;10.40;1.00
10566;DHT22;5331;48.148;16.326;2023-04-15T14:42:02;10.40;1.00
10566;DHT22;5331;48.148;16.326;2023-04-15T14:44:29;10.30;1.00
10566;DHT22;5331;48.148;16.326;2023-04-15T14:46:56;10.30;1.00
10566;DHT22;5331;48.148;16.326;2023-04-15T14:49:23;10.40;1.00
10566;DHT22;5331;48.148;16.326;2023-04-15T14:51:50;10.30;1.00
10566;DHT22;5331;48.148;16.326;2023-04-15T14:54:19;10.20;1.00
10566;DHT22;5331;48.148;16.326;2023-04-15T14:56:46;10.00;1.00
10566;DHT22;5331;48.148;16.326;2023-04-15T14:59:13;9.90;1.00
10566;DHT22;5331;48.148;16.326;2023-04-15T15:01:40;9.80;1.00
10566;DHT22;5331;48.148;16.326;2023-04-15T15:04:08;9.70;1.00
10566;DHT22;5331;48.148;16.326;2023-04-15T15:06:35;9.60;1.00
10566;DHT22;5331;48.148;16.326;2023-04-15T15:09:03;9.60;1.00
10566;DHT22;5331;48.148;16.326;2023-04-15T15:11:31;9.60;1.00
10566;DHT22;5331;48.148;16.326;2023-04-15T15:13:58;9.60;1.00
10566;DHT22;5331;48.148;16.326;2023-04-15T15:16:26;9.60;1.00
10566;DHT22;5331;48.148;16.326;2023-04-15T15:18:54;9.60;1.00
10566;DHT22;5331;48.148;16.326;2023-04-15T15:21:21;9.60;1.00
10566;DHT22;5331;48.148;16.326;2023-04-15T15:23:48;9.50;1.00
10566;DHT22;5331;48.148;16.326;2023-04-15T15:26:15;9.50;1.00
10566;DHT22;5331;48.148;16.326;2023-04-15T15:28:45;9.50;1.00
10566;DHT22;5331;48.148;16.326;2023-04-15T15:31:14;9.50;1.00
10566;DHT22;5331;48.148;16.326;2023-04-15T15:33:42;9.40;1.00
10566;DHT22;5331;48.148;16.326;2023-04-15T15:36:09;9.50;1.00
10566;DHT22;5331;48.148;16.326;2023-04-15T15:38:36;9.50;1.00
10566;DHT22;5331;48.148;16.326;2023-04-15T15:41:04;9.40;1.00
10566;DHT22;5331;48.148;16.326;2023-04-15T15:43:31;9.40;1.00
10566;DHT22;5331;48.148;16.326;2023-04-15T15:46:00;9.50;1.00
10566;DHT22;5331;48.148;16.326;2023-04-15T15:48:27;9.40;1.00
10566;DHT22;5331;48.148;16.326;2023-04-15T15:50:54;9.40;1.00
10566;DHT22;5331;48.148;16.326;2023-04-15T15:53:21;9.50;1.00
10566;DHT22;5331;48.148;16.326;2023-04-15T15:55:50;9.40;1.00
10566;DHT22;5331;48.148;16.326;2023-04-15T15:58:17;9.40;1.00
10566;DHT22;5331;48.148;16.326;2023-04-15T16:00:46;9.40;1.00
10566;DHT22;5331;48.148;16.326;2023-04-15T16:03:15;9.20;1.00
10566;DHT22;5331;48.148;16.326;2023-04-15T16:05:43;9.20;1.00
10566;DHT22;5331;48.148;16.326;2023-04-15T16:08:12;9.10;1.00